Time;durP1;ratioP1;P1;durP2;ratioP2;P2;SDS_P1;SDS_P2;PMS_P1;PMS_P2;Temp;Humidity;BMP_temperature;BMP_pressure;BME280_temperature;BME280_humidity;BME280_pressure;Samples;Min_cycle;Max_cycle;Signal;HPM_P1;HPM_P2
2022/05/20 00:02:12;;;;;;;14.55;3.30;;;;;;;;;;5069944;28;20033;-67
2022/05/20 00:04:38;;;;;;;5.15;2.28;;;;;;;;;;5072760;28;20017;-69
2022/05/20 00:07:04;;;;;;;3.92;2.10;;;;;;;;;;5072439;28;20506;-68
2022/05/20 00:09:30;;;;;;;4.72;2.10;;;;;;;;;;5072590;28;20068;-69
2022/05/20 00:11:56;;;;;;;4.53;2.30;;;;;;;;;;5072718;28;20071;-67
2022/05/20 00:14:22;;;;;;;5.18;2.40;;;;;;;;;;5072602;28;20483;-67
2022/05/20 00:16:48;;;;;;;8.00;2.10;;;;;;;;;;5072030;28;20029;-70
2022/05/20 00:19:13;;;;;;;8.27;2.13;;;;;;;;;;5072274;28;20494;-70
2022/05/20 00:21:39;;;;;;;7.05;2.65;;;;;;;;;;5072827;28;20039;-65
2022/05/20 00:24:05;;;;;;;6.95;2.40;;;;;;;;;;5072487;28;20036;-70
2022/05/20 00:26:31;;;;;;;6.70;2.65;;;;;;;;;;5072256;28;20029;-71
2022/05/20 00:28:57;;;;;;;7.47;2.25;;;;;;;;;;5072456;28;20032;-67
2022/05/20 00:31:25;;;;;;;5.22;2.40;;;;;;;;;;5072359;28;20044;-70
2022/05/20 00:33:51;;;;;;;5.18;3.00;;;;;;;;;;5069337;28;20437;-67
2022/05/20 00:36:17;;;;;;;6.00;2.97;;;;;;;;;;5071695;28;20617;-71
2022/05/20 00:38:43;;;;;;;9.45;3.28;;;;;;;;;;5071846;28;20486;-69
2022/05/20 00:41:10;;;;;;;4.40;3.05;;;;;;;;;;5072233;28;20033;-67
2022/05/20 00:43:40;;;;;;;7.97;2.80;;;;;;;;;;5072234;28;20047;-68
2022/05/20 00:46:15;;;;;;;5.45;2.75;;;;;;;;;;5071815;28;20036;-67
2022/05/20 00:48:42;;;;;;;6.60;2.88;;;;;;;;;;5071814;28;20136;-70
2022/05/20 00:51:39;;;;;;;6.50;2.70;;;;;;;;;;5071862;28;20028;-70
2022/05/20 00:54:07;;;;;;;6.45;3.20;;;;;;;;;;5070652;28;20041;-69
2022/05/20 00:56:57;;;;;;;8.63;3.17;;;;;;;;;;5071885;28;20048;-71
2022/05/20 00:59:28;;;;;;;6.88;3.10;;;;;;;;;;5071788;28;20095;-70
2022/05/20 01:01:57;;;;;;;8.05;3.75;;;;;;;;;;5071999;28;20041;-68
2022/05/20 01:04:23;;;;;;;6.25;2.70;;;;;;;;;;5068734;28;20105;-72
2022/05/20 01:06:50;;;;;;;8.02;3.00;;;;;;;;;;5071882;28;20433;-68
2022/05/20 01:09:16;;;;;;;8.63;3.75;;;;;;;;;;5071884;28;20032;-69
2022/05/20 01:11:42;;;;;;;6.60;3.95;;;;;;;;;;5071325;28;20040;-66
2022/05/20 01:14:10;;;;;;;5.35;3.55;;;;;;;;;;5071204;28;20028;-67
2022/05/20 01:16:37;;;;;;;9.30;3.50;;;;;;;;;;5071748;28;20082;-67
2022/05/20 01:19:08;;;;;;;8.07;3.00;;;;;;;;;;5071419;28;20116;-66
2022/05/20 01:21:33;;;;;;;7.15;3.65;;;;;;;;;;5071850;28;20099;-68
2022/05/20 01:24:01;;;;;;;7.80;4.57;;;;;;;;;;5071567;28;20539;-68
2022/05/20 01:26:27;;;;;;;9.93;5.13;;;;;;;;;;5071325;28;20269;-67
2022/05/20 01:28:52;;;;;;;9.48;5.88;;;;;;;;;;5071053;28;20024;-69
2022/05/20 01:31:18;;;;;;;9.80;5.50;;;;;;;;;;5071512;28;20036;-67
2022/05/20 01:33:47;;;;;;;11.60;5.72;;;;;;;;;;5071240;28;20393;-67
2022/05/20 01:36:16;;;;;;;7.97;5.43;;;;;;;;;;5068493;28;20041;-68
2022/05/20 01:38:42;;;;;;;10.90;6.40;;;;;;;;;;5071221;28;20031;-65
2022/05/20 01:41:09;;;;;;;12.70;6.88;;;;;;;;;;5071348;28;20119;-68
2022/05/20 01:44:20;;;;;;;11.65;6.95;;;;;;;;;;5071614;28;20109;-67
2022/05/20 01:46:46;;;;;;;13.07;7.80;;;;;;;;;;5073623;28;20044;-67
2022/05/20 01:49:18;;;;;;;12.98;8.30;;;;;;;;;;5075286;28;20074;-67
2022/05/20 01:51:46;;;;;;;13.30;8.65;;;;;;;;;;5074809;28;20043;-67
2022/05/20 01:54:44;;;;;;;15.57;8.25;;;;;;;;;;5074574;28;20085;-68
2022/05/20 01:57:32;;;;;;;12.95;8.30;;;;;;;;;;5074265;28;20502;-66
2022/05/20 02:00:23;;;;;;;19.25;9.13;;;;;;;;;;5075123;28;20032;-71
2022/05/20 02:03:08;;;;;;;12.48;7.60;;;;;;;;;;5074997;28;20788;-69
2022/05/20 02:05:57;;;;;;;16.13;8.30;;;;;;;;;;5075035;28;20029;-68
2022/05/20 02:08:29;;;;;;;15.55;8.98;;;;;;;;;;5060667;28;20048;-67
2022/05/20 02:11:11;;;;;;;12.98;7.63;;;;;;;;;;5074809;28;20039;-71
2022/05/20 02:13:54;;;;;;;14.77;8.48;;;;;;;;;;5074987;28;20071;-68
2022/05/20 02:16:27;;;;;;;15.68;8.57;;;;;;;;;;5074768;28;20040;-71
2022/05/20 02:19:08;;;;;;;22.00;9.05;;;;;;;;;;5074841;28;20036;-68
2022/05/20 02:21:38;;;;;;;15.90;8.50;;;;;;;;;;5074915;28;20081;-68
2022/05/20 02:24:10;;;;;;;14.77;7.90;;;;;;;;;;5073368;28;20036;-68
2022/05/20 02:26:41;;;;;;;13.68;7.53;;;;;;;;;;5074727;28;20051;-69
2022/05/20 02:29:12;;;;;;;12.60;7.43;;;;;;;;;;5075013;28;20035;-72
2022/05/20 02:31:46;;;;;;;16.95;7.97;;;;;;;;;;5074745;28;20036;-69
2022/05/20 02:34:12;;;;;;;12.07;7.65;;;;;;;;;;5074937;28;20110;-70
2022/05/20 02:36:38;;;;;;;18.85;8.13;;;;;;;;;;5074124;28;20025;-72
2022/05/20 02:39:07;;;;;;;19.67;8.98;;;;;;;;;;5073454;28;20518;-70
2022/05/20 02:41:32;;;;;;;17.92;9.85;;;;;;;;;;5071348;28;20031;-69
2022/05/20 02:43:59;;;;;;;18.83;9.48;;;;;;;;;;5073951;28;20112;-66
2022/05/20 02:46:25;;;;;;;15.45;9.30;;;;;;;;;;5074267;28;20025;-69
2022/05/20 02:48:51;;;;;;;23.02;9.70;;;;;;;;;;5074161;28;20047;-68
2022/05/20 02:51:17;;;;;;;22.05;9.75;;;;;;;;;;5074202;28;20024;-71
2022/05/20 02:53:44;;;;;;;19.10;10.00;;;;;;;;;;5074561;28;20048;-67
2022/05/20 02:56:10;;;;;;;22.30;10.43;;;;;;;;;;5072955;28;20106;-68
2022/05/20 03:04:11;;;;;;;22.50;11.25;;;;;;;;;;5073356;28;20037;-69
2022/05/20 03:06:49;;;;;;;17.33;10.40;;;;;;;;;;5068670;28;20083;-69
2022/05/20 03:09:20;;;;;;;21.98;10.60;;;;;;;;;;5053484;28;20348;-67
2022/05/20 03:11:46;;;;;;;14.48;8.93;;;;;;;;;;5063300;28;20025;-66
2022/05/20 03:14:14;;;;;;;15.80;8.00;;;;;;;;;;5073318;28;20205;-70
2022/05/20 03:16:41;;;;;;;14.07;7.72;;;;;;;;;;5072658;28;20034;-68
2022/05/20 03:19:07;;;;;;;15.32;9.20;;;;;;;;;;5073324;28;20032;-66
2022/05/20 03:21:34;;;;;;;13.35;8.48;;;;;;;;;;5073295;28;20044;-66
2022/05/20 03:24:01;;;;;;;12.25;7.18;;;;;;;;;;5073285;28;20052;-69
2022/05/20 03:26:28;;;;;;;14.45;7.60;;;;;;;;;;5073491;28;20117;-69
2022/05/20 03:28:54;;;;;;;15.70;6.78;;;;;;;;;;5072931;28;20348;-68
2022/05/20 03:31:20;;;;;;;11.77;6.57;;;;;;;;;;5072995;28;20077;-67
2022/05/20 03:33:46;;;;;;;13.95;7.00;;;;;;;;;;5073320;28;20028;-68
2022/05/20 03:36:13;;;;;;;12.82;6.30;;;;;;;;;;5068925;28;20090;-68
2022/05/20 03:38:38;;;;;;;16.67;6.65;;;;;;;;;;5051531;28;20060;-67
2022/05/20 03:41:05;;;;;;;13.70;6.15;;;;;;;;;;5052582;28;20383;-67
2022/05/20 03:43:33;;;;;;;9.70;5.50;;;;;;;;;;5068869;28;20029;-68
2022/05/20 03:46:00;;;;;;;17.20;5.88;;;;;;;;;;5072804;28;20047;-67
2022/05/20 03:48:27;;;;;;;10.25;5.82;;;;;;;;;;5072898;28;20029;-72
2022/05/20 03:50:52;;;;;;;12.40;5.25;;;;;;;;;;5072933;28;20032;-68
2022/05/20 03:53:19;;;;;;;10.98;4.50;;;;;;;;;;5072469;28;20339;-68
2022/05/20 03:55:44;;;;;;;10.18;4.53;;;;;;;;;;5067412;28;20044;-68
2022/05/20 03:58:11;;;;;;;9.98;4.43;;;;;;;;;;5052494;28;20040;-70
2022/05/20 04:03:23;;;;;;;15.00;5.82;;;;;;;;;;5067657;28;20422;-71
2022/05/20 04:05:50;;;;;;;10.57;4.97;;;;;;;;;;5061058;28;20033;-69
2022/05/20 04:08:16;;;;;;;10.63;5.32;;;;;;;;;;5051615;28;20025;-69
2022/05/20 04:10:42;;;;;;;10.55;4.97;;;;;;;;;;5051638;28;20043;-69
2022/05/20 04:13:08;;;;;;;15.68;6.40;;;;;;;;;;5051707;28;20033;-73
2022/05/20 04:15:33;;;;;;;10.10;5.88;;;;;;;;;;5067088;28;20024;-70
2022/05/20 04:17:59;;;;;;;12.95;6.70;;;;;;;;;;5068907;28;20407;-69
2022/05/20 04:20:25;;;;;;;10.50;4.72;;;;;;;;;;5071588;28;20027;-74
2022/05/20 04:22:52;;;;;;;9.23;5.05;;;;;;;;;;5070684;28;20115;-72
2022/05/20 04:25:17;;;;;;;6.78;4.65;;;;;;;;;;5070525;28;20078;-72
2022/05/20 04:27:43;;;;;;;6.32;3.90;;;;;;;;;;5071047;28;20040;-73
2022/05/20 04:30:09;;;;;;;6.70;4.10;;;;;;;;;;5071431;28;20024;-72
2022/05/20 04:32:35;;;;;;;14.35;4.97;;;;;;;;;;5064534;28;20033;-75
2022/05/20 04:35:01;;;;;;;15.20;5.57;;;;;;;;;;5055009;28;20032;-74
2022/05/20 04:37:27;;;;;;;13.35;4.93;;;;;;;;;;5051213;28;20039;-73
2022/05/20 04:39:54;;;;;;;10.00;3.92;;;;;;;;;;5050971;28;20025;-74
2022/05/20 04:47:51;;;;;;;9.40;3.90;;;;;;;;;;5057280;28;20487;-73
2022/05/20 04:50:17;;;;;;;8.25;4.05;;;;;;;;;;5054897;28;20036;-74
2022/05/20 04:52:43;;;;;;;11.85;4.07;;;;;;;;;;5050882;28;20414;-73
2022/05/20 04:55:09;;;;;;;9.95;5.05;;;;;;;;;;5070732;28;20020;-73
2022/05/20 04:57:45;;;;;;;15.75;6.10;;;;;;;;;;5072037;28;20463;-73
2022/05/20 05:00:32;;;;;;;14.93;6.82;;;;;;;;;;5072582;28;20040;-72
2022/05/20 05:02:58;;;;;;;8.85;5.72;;;;;;;;;;5071899;28;20376;-72
2022/05/20 05:05:27;;;;;;;11.00;7.35;;;;;;;;;;5072186;28;20024;-73
2022/05/20 05:07:55;;;;;;;10.80;6.40;;;;;;;;;;5070833;28;20219;-73
2022/05/20 05:10:24;;;;;;;14.57;7.07;;;;;;;;;;5072187;28;20076;-74
2022/05/20 05:12:51;;;;;;;14.30;7.47;;;;;;;;;;5070956;28;20101;-74
2022/05/20 05:15:17;;;;;;;18.67;7.63;;;;;;;;;;5069805;28;20078;-74
2022/05/20 05:20:29;;;;;;;13.05;7.75;;;;;;;;;;5069465;28;20107;-73
2022/05/20 05:22:57;;;;;;;15.73;8.38;;;;;;;;;;5071686;28;20526;-72
2022/05/20 05:25:25;;;;;;;15.82;7.22;;;;;;;;;;5071632;28;20037;-73
2022/05/20 05:27:52;;;;;;;12.73;5.60;;;;;;;;;;5070994;28;20028;-76
2022/05/20 05:30:18;;;;;;;11.05;6.10;;;;;;;;;;5069378;28;20432;-72
2022/05/20 05:32:44;;;;;;;12.93;6.25;;;;;;;;;;5071694;28;20347;-73
2022/05/20 05:35:17;;;;;;;12.48;6.22;;;;;;;;;;5070922;28;20039;-73
2022/05/20 05:37:43;;;;;;;13.35;5.90;;;;;;;;;;5071281;28;20415;-72
2022/05/20 05:40:13;;;;;;;9.38;5.43;;;;;;;;;;5071383;28;20475;-71
2022/05/20 05:42:41;;;;;;;14.73;5.60;;;;;;;;;;5071257;28;20039;-72
2022/05/20 05:45:08;;;;;;;7.05;4.18;;;;;;;;;;5071400;28;20089;-74
2022/05/20 05:47:34;;;;;;;16.00;5.75;;;;;;;;;;5070575;28;20055;-73
2022/05/20 05:50:00;;;;;;;6.97;3.50;;;;;;;;;;5068688;28;20468;-73
2022/05/20 05:52:26;;;;;;;7.53;3.47;;;;;;;;;;5059874;28;20476;-71
2022/05/20 05:54:52;;;;;;;11.13;3.78;;;;;;;;;;5050078;28;20037;-73
2022/05/20 05:57:18;;;;;;;5.75;3.15;;;;;;;;;;5051020;28;20496;-72
2022/05/20 05:59:44;;;;;;;8.68;3.10;;;;;;;;;;5051334;28;20037;-73
2022/05/20 06:02:10;;;;;;;8.75;3.05;;;;;;;;;;5051133;28;20041;-72
2022/05/20 06:04:35;;;;;;;8.23;3.38;;;;;;;;;;5051490;28;20044;-73
2022/05/20 06:07:05;;;;;;;7.70;3.40;;;;;;;;;;5050934;28;20131;-75
2022/05/20 06:09:32;;;;;;;18.40;4.15;;;;;;;;;;5050895;28;20456;-77
2022/05/20 06:12:00;;;;;;;10.10;3.63;;;;;;;;;;5051633;28;20037;-76
2022/05/20 06:14:25;;;;;;;8.88;2.78;;;;;;;;;;5051353;28;20025;-76
2022/05/20 06:16:51;;;;;;;7.20;2.28;;;;;;;;;;5051536;28;20029;-74
2022/05/20 06:19:17;;;;;;;8.90;2.92;;;;;;;;;;5051563;28;20356;-74
2022/05/20 06:21:43;;;;;;;8.82;2.92;;;;;;;;;;5051727;28;20037;-71
2022/05/20 06:24:09;;;;;;;7.05;2.83;;;;;;;;;;5051373;28;20104;-71
2022/05/20 06:26:40;;;;;;;6.78;2.40;;;;;;;;;;5051549;28;20199;-70
2022/05/20 06:29:05;;;;;;;4.35;2.30;;;;;;;;;;5051307;28;20033;-71
2022/05/20 06:31:32;;;;;;;7.03;2.35;;;;;;;;;;5052291;28;20123;-71
2022/05/20 06:33:58;;;;;;;6.60;2.10;;;;;;;;;;5054677;28;20025;-71
2022/05/20 06:41:55;;;;;;;5.10;2.42;;;;;;;;;;5054944;28;20029;-73
2022/05/20 06:44:22;;;;;;;10.95;3.03;;;;;;;;;;5055189;28;20032;-72
2022/05/20 06:46:48;;;;;;;6.75;2.70;;;;;;;;;;5054758;28;20033;-72
2022/05/20 06:49:14;;;;;;;4.43;2.40;;;;;;;;;;5054854;28;20486;-72
2022/05/20 06:51:40;;;;;;;6.70;2.75;;;;;;;;;;5054928;28;20032;-71
2022/05/20 06:54:08;;;;;;;5.43;2.28;;;;;;;;;;5054622;28;20475;-72
2022/05/20 06:56:36;;;;;;;6.00;2.30;;;;;;;;;;5054465;28;20044;-72
2022/05/20 06:59:04;;;;;;;9.00;2.78;;;;;;;;;;5054854;28;20091;-72
2022/05/20 07:01:31;;;;;;;7.60;2.65;;;;;;;;;;5064051;28;20025;-70
2022/05/20 07:03:57;;;;;;;6.47;2.60;;;;;;;;;;5074842;28;20043;-70
2022/05/20 07:06:25;;;;;;;5.40;2.55;;;;;;;;;;5074718;28;20449;-75
2022/05/20 07:08:51;;;;;;;8.30;3.00;;;;;;;;;;5074093;28;20020;-72
2022/05/20 07:11:20;;;;;;;7.88;2.67;;;;;;;;;;5074490;28;20085;-70
2022/05/20 07:13:48;;;;;;;12.35;3.40;;;;;;;;;;5072971;28;20024;-71
2022/05/20 07:16:14;;;;;;;8.75;3.08;;;;;;;;;;5074218;28;20085;-72
2022/05/20 07:18:40;;;;;;;12.57;3.08;;;;;;;;;;5074226;28;20077;-71
2022/05/20 07:21:06;;;;;;;8.32;3.10;;;;;;;;;;5074227;28;20036;-72
2022/05/20 07:23:33;;;;;;;6.82;2.95;;;;;;;;;;5074542;28;20025;-71
2022/05/20 07:26:00;;;;;;;7.82;3.20;;;;;;;;;;5074089;28;20519;-71
2022/05/20 07:28:28;;;;;;;4.82;2.40;;;;;;;;;;5076836;28;20463;-72
2022/05/20 07:30:54;;;;;;;6.43;2.17;;;;;;;;;;5089896;28;20650;-74
2022/05/20 07:33:20;;;;;;;5.25;2.58;;;;;;;;;;5074041;28;20060;-71
2022/05/20 07:35:46;;;;;;;7.10;2.20;;;;;;;;;;5074092;28;20067;-72
2022/05/20 07:38:12;;;;;;;6.20;1.90;;;;;;;;;;5073587;28;20098;-70
2022/05/20 07:40:38;;;;;;;6.47;1.85;;;;;;;;;;5073613;28;20040;-72
2022/05/20 07:43:04;;;;;;;3.83;1.90;;;;;;;;;;5072835;28;20017;-72
2022/05/20 07:45:30;;;;;;;5.35;2.47;;;;;;;;;;5073640;28;20038;-71
2022/05/20 07:47:56;;;;;;;5.60;2.10;;;;;;;;;;5073680;28;20530;-71
2022/05/20 07:50:21;;;;;;;7.50;2.20;;;;;;;;;;5073613;28;20032;-72
2022/05/20 07:55:41;;;;;;;9.98;2.20;;;;;;;;;;5073330;28;20053;-71
2022/05/20 07:58:18;;;;;;;3.92;2.15;;;;;;;;;;5073427;28;20066;-74
2022/05/20 08:00:45;;;;;;;4.32;1.80;;;;;;;;;;5073245;28;20024;-77
2022/05/20 08:03:14;;;;;;;6.00;1.85;;;;;;;;;;5073623;28;20024;-74
2022/05/20 08:05:40;;;;;;;5.30;1.80;;;;;;;;;;5073342;28;20035;-71
2022/05/20 08:08:08;;;;;;;5.28;1.73;;;;;;;;;;5073102;28;20047;-69
2022/05/20 08:10:36;;;;;;;4.90;2.08;;;;;;;;;;5072827;28;20060;-71
2022/05/20 08:13:03;;;;;;;5.75;1.92;;;;;;;;;;5072639;28;20032;-70
2022/05/20 08:15:31;;;;;;;3.58;1.50;;;;;;;;;;5072775;28;20531;-71
2022/05/20 08:17:57;;;;;;;4.57;1.70;;;;;;;;;;5072806;28;20028;-70
2022/05/20 08:20:27;;;;;;;4.55;1.60;;;;;;;;;;5072878;28;20445;-70
2022/05/20 08:22:53;;;;;;;10.80;2.00;;;;;;;;;;5072335;28;20368;-71
2022/05/20 08:25:21;;;;;;;8.10;2.03;;;;;;;;;;5072720;28;20387;-69
2022/05/20 08:27:47;;;;;;;5.88;2.08;;;;;;;;;;5072998;28;20021;-71
2022/05/20 08:30:17;;;;;;;4.68;1.58;;;;;;;;;;5072675;28;20048;-70
2022/05/20 08:32:43;;;;;;;6.82;1.90;;;;;;;;;;5073020;28;20040;-71
2022/05/20 08:35:10;;;;;;;4.40;2.15;;;;;;;;;;5072937;28;20027;-69
2022/05/20 08:37:41;;;;;;;5.68;1.77;;;;;;;;;;5072425;28;20052;-69
2022/05/20 08:40:12;;;;;;;4.65;2.00;;;;;;;;;;5072461;28;20093;-69
2022/05/20 08:42:39;;;;;;;4.07;1.67;;;;;;;;;;5072529;28;20040;-70
2022/05/20 08:45:06;;;;;;;3.97;1.90;;;;;;;;;;5072452;28;20029;-70
2022/05/20 08:47:51;;;;;;;9.02;2.53;;;;;;;;;;5072609;28;20029;-70
2022/05/20 08:50:24;;;;;;;9.65;2.22;;;;;;;;;;5072274;28;20324;-70
2022/05/20 08:52:54;;;;;;;6.45;2.38;;;;;;;;;;5072183;28;20087;-71
2022/05/20 08:55:20;;;;;;;6.45;1.90;;;;;;;;;;5071047;28;20514;-71
2022/05/20 08:57:58;;;;;;;6.93;1.90;;;;;;;;;;5072175;28;20532;-71
2022/05/20 09:00:25;;;;;;;5.55;1.98;;;;;;;;;;5072122;28;20056;-70
2022/05/20 09:02:51;;;;;;;3.70;1.70;;;;;;;;;;5072220;28;20028;-71
2022/05/20 09:05:19;;;;;;;4.40;1.17;;;;;;;;;;5071639;28;20037;-70
2022/05/20 09:08:07;;;;;;;3.17;1.70;;;;;;;;;;5072050;28;20078;-69
2022/05/20 09:10:47;;;;;;;4.03;1.80;;;;;;;;;;5072055;28;20430;-70
2022/05/20 09:16:19;;;;;;;5.35;1.60;;;;;;;;;;5071839;28;20055;-70
2022/05/20 09:18:48;;;;;;;3.75;1.50;;;;;;;;;;5073047;28;20080;-71
2022/05/20 09:21:28;;;;;;;3.67;1.40;;;;;;;;;;5072534;28;20418;-68
2022/05/20 09:23:57;;;;;;;4.03;1.80;;;;;;;;;;5067522;28;20043;-70
2022/05/20 09:26:32;;;;;;;3.80;1.80;;;;;;;;;;5062376;28;20040;-73
2022/05/20 09:29:04;;;;;;;4.50;1.30;;;;;;;;;;5050514;28;20048;-73
2022/05/20 09:31:40;;;;;;;7.85;1.60;;;;;;;;;;5051870;28;20029;-71
2022/05/20 09:34:20;;;;;;;3.60;1.25;;;;;;;;;;5051983;28;20033;-74
2022/05/20 09:36:49;;;;;;;4.82;1.90;;;;;;;;;;5050621;28;20495;-71
2022/05/20 09:39:21;;;;;;;3.10;1.30;;;;;;;;;;5051924;28;20029;-73
2022/05/20 09:41:55;;;;;;;2.47;1.50;;;;;;;;;;5051819;28;20033;-73
2022/05/20 09:44:25;;;;;;;3.22;1.58;;;;;;;;;;5051863;28;20079;-72
2022/05/20 09:47:04;;;;;;;4.85;1.33;;;;;;;;;;5051503;28;20029;-72
2022/05/20 09:49:54;;;;;;;2.60;1.38;;;;;;;;;;5051788;28;20373;-70
2022/05/20 09:52:31;;;;;;;4.47;1.60;;;;;;;;;;5051926;28;20055;-70
2022/05/20 09:55:06;;;;;;;2.95;1.73;;;;;;;;;;5051920;28;20048;-74
2022/05/20 09:57:45;;;;;;;2.17;1.42;;;;;;;;;;5051517;28;20037;-75
2022/05/20 10:00:25;;;;;;;2.67;1.42;;;;;;;;;;5051519;28;20391;-71
2022/05/20 10:02:59;;;;;;;5.53;1.65;;;;;;;;;;5053916;28;20102;-76
2022/05/20 10:05:41;;;;;;;7.43;2.60;;;;;;;;;;5060392;28;20120;-74
2022/05/20 10:08:14;;;;;;;3.13;1.55;;;;;;;;;;5055021;28;20129;-74
2022/05/20 10:10:43;;;;;;;4.72;1.40;;;;;;;;;;5054799;28;20063;-75
2022/05/20 10:13:27;;;;;;;6.53;2.47;;;;;;;;;;5055418;28;20025;-71
2022/05/20 10:16:05;;;;;;;6.72;2.05;;;;;;;;;;5055263;28;20037;-75
2022/05/20 10:18:36;;;;;;;7.07;1.73;;;;;;;;;;5054663;28;20040;-71
2022/05/20 10:21:32;;;;;;;3.70;1.80;;;;;;;;;;5054719;28;20132;-73
2022/05/20 10:24:10;;;;;;;4.80;3.30;;;;;;;;;;5054652;28;20095;-75
2022/05/20 10:26:48;;;;;;;5.75;1.90;;;;;;;;;;5054856;28;20443;-75
2022/05/20 10:32:35;;;;;;;4.07;1.60;;;;;;;;;;5055163;28;20056;-73
2022/05/20 10:35:06;;;;;;;10.57;1.33;;;;;;;;;;5055063;28;20478;-69
2022/05/20 10:37:59;;;;;;;4.03;1.80;;;;;;;;;;5055168;28;20029;-75
2022/05/20 10:40:39;;;;;;;3.33;1.27;;;;;;;;;;5047022;28;20048;-73
2022/05/20 10:43:24;;;;;;;7.05;1.50;;;;;;;;;;5055033;28;20033;-73
2022/05/20 10:49:43;;;;;;;3.17;1.30;;;;;;;;;;5054445;28;20045;-73
2022/05/20 10:52:27;;;;;;;4.53;1.73;;;;;;;;;;5028367;28;20399;-74
2022/05/20 10:55:02;;;;;;;2.70;1.10;;;;;;;;;;5054592;28;20036;-73
2022/05/20 10:57:43;;;;;;;1.73;1.20;;;;;;;;;;5054419;28;20041;-73
2022/05/20 11:00:16;;;;;;;2.83;1.20;;;;;;;;;;5054532;28;20040;-70
2022/05/20 11:03:15;;;;;;;3.05;1.20;;;;;;;;;;5054526;28;20102;-73
2022/05/20 11:05:59;;;;;;;3.72;1.38;;;;;;;;;;5054346;28;20044;-74
2022/05/20 11:08:40;;;;;;;3.22;1.25;;;;;;;;;;5054254;28;20033;-76
2022/05/20 11:11:50;;;;;;;1.92;1.10;;;;;;;;;;5054009;28;20091;-74
2022/05/20 11:14:22;;;;;;;3.20;1.00;;;;;;;;;;5039645;28;20051;-70
2022/05/20 11:17:25;;;;;;;3.25;1.15;;;;;;;;;;5071440;28;20037;-72
2022/05/20 11:20:18;;;;;;;1.20;0.90;;;;;;;;;;5071024;28;20569;-76
2022/05/20 11:23:02;;;;;;;5.25;1.30;;;;;;;;;;5072915;28;20032;-69
2022/05/20 11:25:49;;;;;;;3.83;1.65;;;;;;;;;;5073837;28;20039;-72
2022/05/20 11:28:38;;;;;;;6.13;1.35;;;;;;;;;;5073796;28;20040;-72
2022/05/20 11:31:42;;;;;;;2.47;1.10;;;;;;;;;;5070201;28;20045;-70
2022/05/20 11:34:29;;;;;;;2.13;1.00;;;;;;;;;;5066608;28;20036;-70
2022/05/20 11:37:18;;;;;;;2.55;1.40;;;;;;;;;;5073079;28;20039;-71
2022/05/20 11:40:09;;;;;;;2.50;1.00;;;;;;;;;;5072472;28;20036;-71
2022/05/20 11:42:44;;;;;;;3.50;1.02;;;;;;;;;;5072433;28;20079;-73
2022/05/20 11:45:30;;;;;;;4.30;1.50;;;;;;;;;;5070660;28;20108;-72
2022/05/20 11:48:20;;;;;;;3.20;1.00;;;;;;;;;;5052546;28;20144;-70
2022/05/20 11:51:07;;;;;;;4.93;1.70;;;;;;;;;;5064214;28;20041;-74
2022/05/20 11:53:43;;;;;;;3.63;1.50;;;;;;;;;;5071490;28;20024;-74
2022/05/20 11:56:34;;;;;;;3.08;1.33;;;;;;;;;;5071537;28;20041;-76
2022/05/20 11:59:22;;;;;;;2.83;1.23;;;;;;;;;;5073359;28;20480;-74
2022/05/20 12:01:51;;;;;;;5.30;1.40;;;;;;;;;;5061125;28;20430;-76
2022/05/20 12:04:20;;;;;;;3.55;1.30;;;;;;;;;;5067157;28;20055;-75
2022/05/20 12:06:59;;;;;;;2.25;1.20;;;;;;;;;;5072482;28;20036;-70
2022/05/20 12:09:35;;;;;;;4.80;0.98;;;;;;;;;;5072857;28;20067;-77
2022/05/20 12:12:36;;;;;;;1.85;1.13;;;;;;;;;;5072957;28;20032;-71
2022/05/20 12:15:07;;;;;;;5.15;1.10;;;;;;;;;;5074017;28;20401;-71
2022/05/20 12:17:47;;;;;;;4.30;1.13;;;;;;;;;;5073191;28;20483;-73
2022/05/20 12:26:42;;;;;;;2.58;1.23;;;;;;;;;;5071695;28;20036;-71
2022/05/20 12:29:37;;;;;;;5.43;1.20;;;;;;;;;;5072443;28;20478;-72
2022/05/20 12:32:15;;;;;;;3.25;1.23;;;;;;;;;;5072039;28;20109;-69
2022/05/20 12:34:52;;;;;;;3.25;1.17;;;;;;;;;;5072744;28;20047;-73
2022/05/20 12:37:48;;;;;;;1.98;1.15;;;;;;;;;;5072531;28;20099;-70
2022/05/20 12:40:19;;;;;;;2.45;1.20;;;;;;;;;;5080666;28;20048;-74
2022/05/20 12:42:58;;;;;;;3.65;1.20;;;;;;;;;;5063986;28;20044;-75
2022/05/20 12:45:26;;;;;;;2.83;1.25;;;;;;;;;;5068263;28;20498;-69
2022/05/20 12:47:56;;;;;;;3.47;1.23;;;;;;;;;;5061231;28;20101;-73
2022/05/20 12:50:26;;;;;;;2.08;1.00;;;;;;;;;;5062548;28;20040;-69
2022/05/20 12:53:07;;;;;;;3.33;1.10;;;;;;;;;;5066463;28;20027;-71
2022/05/20 12:55:37;;;;;;;2.85;1.17;;;;;;;;;;5071839;28;20032;-75
2022/05/20 12:58:09;;;;;;;1.33;1.00;;;;;;;;;;5071959;28;20047;-76
2022/05/20 13:00:50;;;;;;;2.28;1.00;;;;;;;;;;5052503;28;20088;-72
2022/05/20 13:03:30;;;;;;;1.83;1.10;;;;;;;;;;5069838;28;20024;-79
2022/05/20 13:06:03;;;;;;;4.10;1.08;;;;;;;;;;5069472;28;20046;-75
2022/05/20 13:08:30;;;;;;;3.08;1.17;;;;;;;;;;5067187;28;20033;-73
2022/05/20 13:11:06;;;;;;;1.67;1.00;;;;;;;;;;5070808;28;20032;-74
2022/05/20 13:13:32;;;;;;;4.30;1.13;;;;;;;;;;5070256;28;20372;-71
2022/05/20 13:16:00;;;;;;;5.22;1.20;;;;;;;;;;5067005;28;20021;-76
2022/05/20 13:18:29;;;;;;;2.67;1.20;;;;;;;;;;5065050;28;20039;-71
2022/05/20 13:21:20;;;;;;;1.92;1.08;;;;;;;;;;5070043;28;20032;-74
2022/05/20 13:23:48;;;;;;;5.40;1.20;;;;;;;;;;5054576;28;20068;-71
2022/05/20 13:26:19;;;;;;;2.97;1.20;;;;;;;;;;5063703;28;20032;-69
2022/05/20 13:28:45;;;;;;;1.80;1.00;;;;;;;;;;5063419;28;20207;-69
2022/05/20 13:31:18;;;;;;;4.13;1.23;;;;;;;;;;5066324;28;20119;-70
2022/05/20 13:33:44;;;;;;;4.30;1.00;;;;;;;;;;5067418;28;20040;-70
2022/05/20 13:36:17;;;;;;;3.65;1.50;;;;;;;;;;5067119;28;20025;-72
2022/05/20 13:39:04;;;;;;;2.85;0.95;;;;;;;;;;5054075;28;20421;-76
2022/05/20 13:41:32;;;;;;;2.35;1.20;;;;;;;;;;5073370;28;20039;-73
2022/05/20 13:44:03;;;;;;;1.77;1.02;;;;;;;;;;5075498;28;20024;-74
2022/05/20 13:49:23;;;;;;;2.55;1.00;;;;;;;;;;5075159;28;20111;-77
2022/05/20 13:51:51;;;;;;;2.30;1.00;;;;;;;;;;5074965;28;20059;-77
2022/05/20 13:54:27;;;;;;;7.75;1.33;;;;;;;;;;5075142;28;20032;-72
2022/05/20 13:56:55;;;;;;;2.67;1.00;;;;;;;;;;5075654;28;20041;-77
2022/05/20 13:59:35;;;;;;;3.78;1.20;;;;;;;;;;5074658;28;20607;-71
2022/05/20 14:02:10;;;;;;;2.42;1.17;;;;;;;;;;5075247;28;20039;-74
2022/05/20 14:04:47;;;;;;;3.17;1.08;;;;;;;;;;5076279;28;20111;-74
2022/05/20 14:07:34;;;;;;;2.47;1.20;;;;;;;;;;5075995;28;20112;-78
2022/05/20 14:10:30;;;;;;;3.17;1.42;;;;;;;;;;5075455;28;20050;-75
2022/05/20 14:13:02;;;;;;;5.40;1.15;;;;;;;;;;5075781;28;20139;-74
2022/05/20 14:15:46;;;;;;;4.40;1.20;;;;;;;;;;5073668;28;20047;-75
2022/05/20 14:18:18;;;;;;;1.95;1.02;;;;;;;;;;5067634;28;20044;-76
2022/05/20 14:20:47;;;;;;;5.78;1.27;;;;;;;;;;5071038;28;20094;-75
2022/05/20 14:23:18;;;;;;;3.20;1.10;;;;;;;;;;5074846;28;20028;-72
2022/05/20 14:25:52;;;;;;;2.13;1.20;;;;;;;;;;5074774;28;20033;-76
2022/05/20 14:28:20;;;;;;;4.78;1.15;;;;;;;;;;5071007;28;20037;-77
2022/05/20 14:30:59;;;;;;;1.88;1.30;;;;;;;;;;5075408;28;20052;-73
2022/05/20 14:33:39;;;;;;;3.63;1.20;;;;;;;;;;5071066;28;20050;-71
2022/05/20 14:36:11;;;;;;;2.83;1.40;;;;;;;;;;5074890;28;20036;-73
2022/05/20 14:38:44;;;;;;;10.40;1.42;;;;;;;;;;5074474;28;20039;-72
2022/05/20 14:41:30;;;;;;;1.75;1.00;;;;;;;;;;5074890;28;20563;-73
2022/05/20 14:44:04;;;;;;;2.75;1.10;;;;;;;;;;5074103;28;20550;-72
2022/05/20 14:47:14;;;;;;;4.38;1.63;;;;;;;;;;5074783;28;20033;-74
2022/05/20 14:49:56;;;;;;;6.03;1.63;;;;;;;;;;5074800;28;20040;-73
2022/05/20 14:52:32;;;;;;;3.67;1.42;;;;;;;;;;5069999;28;20087;-69
2022/05/20 14:54:59;;;;;;;4.18;1.50;;;;;;;;;;5074123;28;20547;-75
2022/05/20 14:57:32;;;;;;;2.63;1.50;;;;;;;;;;5074446;28;20085;-74
2022/05/20 15:00:18;;;;;;;3.97;1.42;;;;;;;;;;5074538;28;20029;-73
2022/05/20 15:02:46;;;;;;;2.45;1.23;;;;;;;;;;5074155;28;20160;-70
2022/05/20 15:05:12;;;;;;;4.13;1.50;;;;;;;;;;5074013;28;20036;-70
2022/05/20 15:07:38;;;;;;;3.53;1.10;;;;;;;;;;5072656;28;20534;-71
2022/05/20 15:10:19;;;;;;;10.85;1.85;;;;;;;;;;5074605;28;20483;-70
2022/05/20 15:12:47;;;;;;;5.43;1.80;;;;;;;;;;5073024;28;20078;-72
2022/05/20 15:15:14;;;;;;;3.78;1.40;;;;;;;;;;5071640;28;20024;-72
2022/05/20 15:17:59;;;;;;;4.00;1.13;;;;;;;;;;5075807;28;20029;-73
2022/05/20 15:20:26;;;;;;;2.90;1.50;;;;;;;;;;5074621;28;20033;-71
2022/05/20 15:22:53;;;;;;;4.38;1.85;;;;;;;;;;5074448;28;20044;-73
2022/05/20 15:25:19;;;;;;;5.10;1.70;;;;;;;;;;5070596;28;20382;-70
2022/05/20 15:27:46;;;;;;;5.38;1.77;;;;;;;;;;5071241;28;20177;-75
2022/05/20 15:30:12;;;;;;;1.80;1.20;;;;;;;;;;5063238;28;20076;-73
2022/05/20 15:35:22;;;;;;;2.88;1.27;;;;;;;;;;5074256;28;20108;-75
2022/05/20 15:37:48;;;;;;;3.63;1.27;;;;;;;;;;5074113;28;20100;-74
2022/05/20 15:40:20;;;;;;;3.83;1.10;;;;;;;;;;5073987;28;20116;-75
2022/05/20 15:42:47;;;;;;;5.20;1.27;;;;;;;;;;5074448;28;20117;-70
2022/05/20 15:45:16;;;;;;;1.48;1.10;;;;;;;;;;5073902;28;20024;-76
2022/05/20 15:47:42;;;;;;;3.10;1.40;;;;;;;;;;5074015;28;20126;-77
2022/05/20 15:50:09;;;;;;;2.72;1.17;;;;;;;;;;5067668;28;20032;-78
2022/05/20 15:52:39;;;;;;;4.35;1.80;;;;;;;;;;5074102;28;20040;-76
2022/05/20 15:55:31;;;;;;;2.20;1.30;;;;;;;;;;5073929;28;20021;-76